createdAt,value
2018-03-06T00:01:53.784Z,46.40
2018-03-06T00:04:21.262Z,45.13
2018-03-06T00:06:49.523Z,45.53
2018-03-06T00:09:17.006Z,44.77
2018-03-06T00:11:45.237Z,45.40
2018-03-06T00:14:12.711Z,41.97
2018-03-06T00:16:40.172Z,44.10
2018-03-06T00:19:07.650Z,42.53
2018-03-06T00:21:35.907Z,43.00
2018-03-06T00:24:03.444Z,45.27
2018-03-06T00:26:30.904Z,39.67
2018-03-06T00:28:58.371Z,42.67
2018-03-06T00:31:25.860Z,43.47
2018-03-06T00:33:54.106Z,43.83
2018-03-06T00:36:21.591Z,44.90
2018-03-06T00:38:49.820Z,41.90
2018-03-06T00:41:17.307Z,43.93
2018-03-06T00:43:44.764Z,46.37
2018-03-06T00:46:12.239Z,43.77
2018-03-06T00:48:40.459Z,44.17
2018-03-06T00:51:07.976Z,42.80
2018-03-06T00:53:35.440Z,42.30
2018-03-06T00:56:02.890Z,44.50
2018-03-06T00:58:30.368Z,45.93
2018-03-06T01:00:57.856Z,45.00
2018-03-06T01:03:25.337Z,45.57
2018-03-06T01:05:53.560Z,42.77
2018-03-06T01:08:21.094Z,44.43
2018-03-06T01:10:48.526Z,43.03
2018-03-06T01:13:15.999Z,44.17
2018-03-06T01:15:43.477Z,43.37
2018-03-06T01:18:10.960Z,44.57
2018-03-06T01:20:38.416Z,44.57
2018-03-06T01:23:05.883Z,44.00
2018-03-06T01:25:33.397Z,43.43
2018-03-06T01:28:00.799Z,48.10
2018-03-06T01:30:28.288Z,41.03
2018-03-06T01:32:56.536Z,43.43
2018-03-06T01:35:24.072Z,42.80
2018-03-06T01:37:51.521Z,38.50
2018-03-06T01:40:18.999Z,42.20
2018-03-06T01:42:46.439Z,41.93
2018-03-06T01:45:13.919Z,41.57
2018-03-06T01:47:41.371Z,41.40
2018-03-06T01:50:08.850Z,42.13
2018-03-06T01:52:37.071Z,43.10
2018-03-06T01:55:04.570Z,42.47
2018-03-06T01:57:32.036Z,43.00
2018-03-06T02:00:00.271Z,44.77
2018-03-06T02:02:27.710Z,45.23
2018-03-06T02:04:55.160Z,44.53
2018-03-06T02:07:22.648Z,43.30
2018-03-06T02:09:50.104Z,40.30
2018-03-06T02:12:17.584Z,40.47
2018-03-06T02:14:45.046Z,40.07
2018-03-06T02:17:12.501Z,38.50
2018-03-06T02:19:40.717Z,41.03
2018-03-06T02:22:08.200Z,39.97
2018-03-06T02:24:35.675Z,37.60
2018-03-06T02:27:03.984Z,39.83
2018-03-06T02:29:31.567Z,39.67
2018-03-06T02:31:59.062Z,37.80
2018-03-06T02:34:26.527Z,36.33
2018-03-06T02:36:53.975Z,40.50
2018-03-06T02:39:21.451Z,42.40
2018-03-06T02:41:49.668Z,39.47
2018-03-06T02:44:17.140Z,40.30
2018-03-06T02:46:44.614Z,41.17
2018-03-06T02:49:12.064Z,40.00
2018-03-06T02:51:39.546Z,43.47
2018-03-06T02:54:06.987Z,44.07
2018-03-06T02:56:34.462Z,43.00
2018-03-06T02:59:02.710Z,42.80
2018-03-06T03:01:30.183Z,42.80
2018-03-06T03:03:57.628Z,43.50
2018-03-06T03:06:25.080Z,40.07
2018-03-06T03:08:52.555Z,43.23
2018-03-06T03:11:20.003Z,43.83
2018-03-06T03:13:47.476Z,45.20
2018-03-06T03:16:15.743Z,43.53
2018-03-06T03:18:43.220Z,46.20
2018-03-06T03:21:11.440Z,43.43
2018-03-06T03:23:38.927Z,46.13
2018-03-06T03:26:06.388Z,42.37
2018-03-06T03:28:33.848Z,46.30
2018-03-06T03:31:02.086Z,49.10
2018-03-06T03:33:29.564Z,46.17
2018-03-06T03:35:57.005Z,47.10
2018-03-06T03:38:24.476Z,46.47
2018-03-06T03:40:51.944Z,46.43
2018-03-06T03:43:20.169Z,49.77
2018-03-06T03:45:47.655Z,47.37
2018-03-06T03:48:15.102Z,47.87
2018-03-06T03:50:42.609Z,48.70
2018-03-06T03:53:10.835Z,51.70
2018-03-06T03:55:38.296Z,49.63
2018-03-06T03:58:05.776Z,49.97
2018-03-06T04:00:33.987Z,48.03
2018-03-06T04:03:01.464Z,52.60
2018-03-06T04:05:28.966Z,52.30
2018-03-06T04:07:56.401Z,54.00
2018-03-06T04:10:23.866Z,52.57
2018-03-06T04:12:51.340Z,51.97
2018-03-06T04:15:19.564Z,49.17
2018-03-06T04:17:47.066Z,50.97
2018-03-06T04:20:14.518Z,51.30
2018-03-06T04:22:42.739Z,50.30
2018-03-06T04:25:10.211Z,55.60
2018-03-06T04:27:37.659Z,51.67
2018-03-06T04:30:05.123Z,51.93
2018-03-06T04:32:32.587Z,53.03
2018-03-06T04:35:00.095Z,49.50
2018-03-06T04:37:27.555Z,51.47
2018-03-06T04:39:55.006Z,49.97
2018-03-06T04:42:22.479Z,50.93
2018-03-06T04:44:49.931Z,49.37
2018-03-06T04:47:17.408Z,53.40
2018-03-06T04:49:44.859Z,52.33
2018-03-06T04:52:12.358Z,51.57
2018-03-06T04:54:40.375Z,51.80
2018-03-06T04:57:07.824Z,52.87
2018-03-06T04:59:35.295Z,51.07
2018-03-06T05:02:02.750Z,52.53
2018-03-06T05:04:30.219Z,50.20
2018-03-06T05:06:57.676Z,50.50
2018-03-06T05:09:25.151Z,47.70
2018-03-06T05:11:52.620Z,48.00
2018-03-06T05:14:20.110Z,47.30
2018-03-06T05:16:48.329Z,46.63
2018-03-06T05:19:15.812Z,46.50
2018-03-06T05:21:43.251Z,47.77
2018-03-06T05:24:10.741Z,45.77
2018-03-06T05:26:38.964Z,43.40
2018-03-06T05:29:06.451Z,46.07
2018-03-06T05:31:33.916Z,46.60
2018-03-06T05:34:01.372Z,43.83
2018-03-06T05:36:28.855Z,49.13
2018-03-06T05:38:56.307Z,44.87
2018-03-06T05:41:24.549Z,46.10
2018-03-06T05:43:51.994Z,49.80
2018-03-06T05:46:19.466Z,46.90
2018-03-06T05:48:46.916Z,45.87
2018-03-06T05:51:14.505Z,45.80
2018-03-06T05:53:42.743Z,48.03
2018-03-06T05:56:10.199Z,49.63
2018-03-06T05:58:37.662Z,47.57
2018-03-06T06:01:05.116Z,47.20
2018-03-06T06:03:33.372Z,49.37
2018-03-06T06:06:00.820Z,44.87
2018-03-06T06:08:28.268Z,46.77
2018-03-06T06:10:55.743Z,45.20
2018-03-06T06:13:23.195Z,50.37
2018-03-06T06:15:50.817Z,47.60
2018-03-06T06:18:19.030Z,50.80
2018-03-06T06:20:46.501Z,49.17
2018-03-06T06:23:13.948Z,48.97
2018-03-06T06:25:41.439Z,50.00
2018-03-06T06:28:09.656Z,49.70
2018-03-06T06:30:37.111Z,47.50
2018-03-06T06:33:04.591Z,47.07
2018-03-06T06:35:32.056Z,47.80
2018-03-06T06:37:59.522Z,43.90
2018-03-06T06:40:26.982Z,47.80
2018-03-06T06:42:54.472Z,44.57
2018-03-06T06:45:22.684Z,47.47
2018-03-06T06:47:50.167Z,45.77
2018-03-06T06:50:17.599Z,46.53
2018-03-06T06:52:45.076Z,48.73
2018-03-06T06:55:12.572Z,46.47
2018-03-06T06:57:40.831Z,42.50
2018-03-06T07:00:09.055Z,46.33
2018-03-06T07:02:36.508Z,46.30
2018-03-06T07:05:03.973Z,45.77
2018-03-06T07:07:31.411Z,51.07
2018-03-06T07:09:58.884Z,49.23
2018-03-06T07:12:26.327Z,48.17
2018-03-06T07:14:53.837Z,46.70
2018-03-06T07:17:21.295Z,48.17
2018-03-06T07:19:48.741Z,47.50
2018-03-06T07:22:16.278Z,49.70
2018-03-06T07:24:43.729Z,50.97
2018-03-06T07:27:11.212Z,50.87
2018-03-06T07:29:38.725Z,49.07
2018-03-06T07:32:06.923Z,48.70
2018-03-06T07:34:34.391Z,48.73
2018-03-06T07:37:01.840Z,49.10
2018-03-06T07:39:29.331Z,60.20
2018-03-06T07:41:57.550Z,55.37
2018-03-06T07:44:25.032Z,54.67
2018-03-06T07:46:52.501Z,55.17
2018-03-06T07:49:20.783Z,54.57
2018-03-06T07:51:48.222Z,59.47
2018-03-06T07:54:15.673Z,60.37
2018-03-06T07:56:43.142Z,59.23
2018-03-06T07:59:10.619Z,59.47
2018-03-06T08:01:38.108Z,53.30
2018-03-06T08:04:05.569Z,61.63
2018-03-06T08:06:33.070Z,57.33
2018-03-06T08:09:00.488Z,59.17
2018-03-06T08:11:27.960Z,57.37
2018-03-06T08:13:55.486Z,58.80
2018-03-06T08:16:22.953Z,54.23
2018-03-06T08:18:50.409Z,58.63
2018-03-06T08:21:17.872Z,52.63
2018-03-06T08:23:45.342Z,55.37
2018-03-06T08:26:12.839Z,52.27
2018-03-06T08:28:41.138Z,54.67
2018-03-06T08:31:08.649Z,58.77
2018-03-06T08:33:36.103Z,46.83
2018-03-06T08:36:03.558Z,54.60
2018-03-06T08:38:31.052Z,57.27
2018-03-06T08:40:59.272Z,59.07
2018-03-06T08:43:26.773Z,57.73
2018-03-06T08:45:55.019Z,54.60
2018-03-06T08:48:22.502Z,52.93
2018-03-06T08:50:50.736Z,52.93
2018-03-06T08:53:18.189Z,53.70
2018-03-06T08:55:45.662Z,53.83
2018-03-06T08:58:13.114Z,54.40
2018-03-06T09:00:40.596Z,52.47
2018-03-06T09:03:08.834Z,50.97
2018-03-06T09:05:36.292Z,52.97
2018-03-06T09:08:03.759Z,55.10
2018-03-06T09:10:31.266Z,52.30
2018-03-06T09:12:58.707Z,41.57
2018-03-06T09:15:26.166Z,53.33
2018-03-06T09:17:54.402Z,49.97
2018-03-06T09:20:21.879Z,48.27
2018-03-06T09:22:50.108Z,50.70
2018-03-06T09:25:17.571Z,50.90
2018-03-06T09:27:45.044Z,49.67
2018-03-06T09:30:12.520Z,51.63
2018-03-06T09:32:40.740Z,53.77
2018-03-06T09:35:08.215Z,52.53
2018-03-06T09:37:35.688Z,48.70
2018-03-06T09:40:03.171Z,52.70
2018-03-06T09:42:31.383Z,56.87
2018-03-06T09:44:58.876Z,57.23
2018-03-06T09:47:26.348Z,51.50
2018-03-06T09:49:54.579Z,52.00
2018-03-06T09:52:22.080Z,54.47
2018-03-06T09:54:49.516Z,53.33
2018-03-06T09:57:17.013Z,53.10
2018-03-06T09:59:44.474Z,52.00
2018-03-06T10:02:11.962Z,56.83
2018-03-06T10:04:39.410Z,58.97
2018-03-06T10:07:06.872Z,55.47
2018-03-06T10:09:34.369Z,53.70
2018-03-06T10:12:01.824Z,53.93
2018-03-06T10:14:29.315Z,58.60
2018-03-06T10:16:57.606Z,55.13
2018-03-06T10:19:24.993Z,57.00
2018-03-06T10:21:52.470Z,56.30
2018-03-06T10:24:19.963Z,59.97
2018-03-06T10:26:47.420Z,55.70
2018-03-06T10:29:14.904Z,55.47
2018-03-06T10:31:42.360Z,54.27
2018-03-06T10:34:09.811Z,53.70
2018-03-06T10:36:37.321Z,55.37
2018-03-06T10:39:04.817Z,52.70
2018-03-06T10:41:32.300Z,48.53
2018-03-06T10:43:59.768Z,50.97
2018-03-06T10:46:27.248Z,51.93
2018-03-06T10:48:55.472Z,53.40
2018-03-06T10:51:22.927Z,52.03
2018-03-06T10:53:50.391Z,54.87
2018-03-06T10:56:17.899Z,55.30
2018-03-06T10:58:46.127Z,56.80
2018-03-06T11:01:19.215Z,57.00
2018-03-06T11:03:46.679Z,53.03
2018-03-06T11:06:14.150Z,56.47
2018-03-06T11:08:41.629Z,58.33
2018-03-06T11:11:09.851Z,56.30
2018-03-06T11:13:37.323Z,55.53
2018-03-06T11:16:04.778Z,56.30
2018-03-06T11:18:32.310Z,60.73
2018-03-06T11:21:00.523Z,58.03
2018-03-06T11:23:27.984Z,62.20
2018-03-06T11:25:55.468Z,57.67
2018-03-06T11:28:23.698Z,55.73
2018-03-06T11:30:51.251Z,59.30
2018-03-06T11:33:18.711Z,54.67
2018-03-06T11:35:46.191Z,55.97
2018-03-06T11:38:13.652Z,55.37
2018-03-06T11:40:41.147Z,56.10
2018-03-06T11:43:08.622Z,58.93
2018-03-06T11:45:36.100Z,56.83
2018-03-06T11:48:03.555Z,53.57
2018-03-06T11:50:31.032Z,56.20
2018-03-06T11:52:59.295Z,56.40
2018-03-06T11:55:26.752Z,51.27
2018-03-06T11:57:54.236Z,49.50
2018-03-06T12:00:22.468Z,53.37
2018-03-06T12:02:49.954Z,50.70
2018-03-06T12:05:18.183Z,48.40
2018-03-06T12:07:45.674Z,48.03
2018-03-06T12:10:13.140Z,46.60
2018-03-06T12:12:41.403Z,45.97
2018-03-06T12:15:08.871Z,45.90
2018-03-06T12:17:37.108Z,46.60
2018-03-06T12:20:04.599Z,47.73
2018-03-06T12:22:32.053Z,45.73
2018-03-06T12:25:00.299Z,39.33
2018-03-06T12:27:27.782Z,47.10
2018-03-06T12:29:55.282Z,45.37
2018-03-06T12:32:22.773Z,46.93
2018-03-06T12:34:50.240Z,44.27
2018-03-06T12:37:18.493Z,43.87
2018-03-06T12:39:45.953Z,41.93
2018-03-06T12:42:13.428Z,50.17
2018-03-06T12:44:40.887Z,49.53
2018-03-06T12:47:08.359Z,43.97
2018-03-06T12:49:35.820Z,43.37
2018-03-06T12:52:04.068Z,46.60
2018-03-06T12:54:31.544Z,45.17
2018-03-06T12:56:59.025Z,42.97
2018-03-06T12:59:27.267Z,43.20
2018-03-06T13:01:54.772Z,45.00
2018-03-06T13:04:22.225Z,44.27
2018-03-06T13:06:49.697Z,43.10
2018-03-06T13:09:17.189Z,36.93
2018-03-06T13:11:44.685Z,40.33
2018-03-06T13:14:12.143Z,42.13
2018-03-06T13:16:39.628Z,44.20
2018-03-06T13:19:07.079Z,37.90
2018-03-06T13:21:34.583Z,39.90
2018-03-06T13:24:02.047Z,41.40
2018-03-06T13:26:30.276Z,40.70
2018-03-06T13:28:57.769Z,43.70
2018-03-06T13:31:25.232Z,43.40
2018-03-06T13:33:52.717Z,41.97
2018-03-06T13:36:20.174Z,41.13
2018-03-06T13:38:47.691Z,39.87
2018-03-06T13:41:15.111Z,39.57
2018-03-06T13:43:42.604Z,44.30
2018-03-06T13:46:10.059Z,40.50
2018-03-06T13:48:37.530Z,41.33
2018-03-06T13:51:05.783Z,42.50
2018-03-06T13:53:33.235Z,41.10
2018-03-06T13:56:00.726Z,42.43
2018-03-06T13:58:28.996Z,42.87
2018-03-06T14:00:56.492Z,42.07
2018-03-06T14:03:23.944Z,40.57
2018-03-06T14:05:51.400Z,40.80
2018-03-06T14:08:18.885Z,40.87
2018-03-06T14:10:46.332Z,42.57
2018-03-06T14:13:13.828Z,42.57
2018-03-06T14:15:41.284Z,42.70
2018-03-06T14:18:09.533Z,45.63
2018-03-06T14:20:36.992Z,43.50
2018-03-06T14:23:04.488Z,44.70
2018-03-06T14:25:32.722Z,43.87
2018-03-06T14:28:00.181Z,43.77
2018-03-06T14:30:27.664Z,46.97
2018-03-06T14:32:55.156Z,43.90
2018-03-06T14:35:22.610Z,42.67
2018-03-06T14:37:50.098Z,43.43
2018-03-06T14:40:17.628Z,47.87
2018-03-06T14:42:45.146Z,43.07
2018-03-06T14:45:13.383Z,42.90
2018-03-06T14:47:40.850Z,42.60
2018-03-06T14:50:08.373Z,41.67
2018-03-06T14:52:35.853Z,41.07
2018-03-06T14:55:03.327Z,37.03
2018-03-06T14:57:30.819Z,40.33
2018-03-06T14:59:59.027Z,36.87
2018-03-06T15:02:26.501Z,42.03
2018-03-06T15:04:53.972Z,37.53
2018-03-06T15:07:21.480Z,37.80
2018-03-06T15:09:48.979Z,38.33
2018-03-06T15:12:16.427Z,35.77
2018-03-06T15:14:43.939Z,37.97
2018-03-06T15:17:12.167Z,38.90
2018-03-06T15:19:39.645Z,36.67
2018-03-06T15:22:07.095Z,36.77
2018-03-06T15:24:34.590Z,35.13
2018-03-06T15:27:02.043Z,33.53
2018-03-06T15:29:30.264Z,32.10
2018-03-06T15:31:57.748Z,35.27
2018-03-06T15:34:25.248Z,36.03
2018-03-06T15:36:52.754Z,31.40
2018-03-06T15:39:20.241Z,34.20
2018-03-06T15:41:48.468Z,34.70
2018-03-06T15:44:15.969Z,34.00
2018-03-06T15:46:44.212Z,31.30
2018-03-06T15:49:11.668Z,32.20
2018-03-06T15:51:39.143Z,31.83
2018-03-06T15:54:07.379Z,35.07
2018-03-06T15:56:34.885Z,27.30
2018-03-06T15:59:03.111Z,28.00
2018-03-06T16:01:30.601Z,27.23
2018-03-06T16:03:58.845Z,28.27
2018-03-06T16:06:26.360Z,29.13
2018-03-06T16:08:53.835Z,29.30
2018-03-06T16:11:21.361Z,28.47
2018-03-06T16:13:49.622Z,27.87
2018-03-06T16:16:17.079Z,26.40
2018-03-06T16:18:44.577Z,25.43
2018-03-06T16:21:12.050Z,26.80
2018-03-06T16:23:39.552Z,25.77
2018-03-06T16:26:07.776Z,27.20
2018-03-06T16:28:35.275Z,24.60
2018-03-06T16:31:02.783Z,27.07
2018-03-06T16:33:30.231Z,28.63
2018-03-06T16:35:57.729Z,30.13
2018-03-06T16:38:25.184Z,29.17
2018-03-06T16:40:52.694Z,28.30
2018-03-06T16:43:20.151Z,27.03
2018-03-06T16:45:47.651Z,28.60
2018-03-06T16:48:15.124Z,27.97
2018-03-06T16:50:42.609Z,25.77
2018-03-06T16:53:10.859Z,28.13
2018-03-06T16:55:38.320Z,28.47
2018-03-06T16:58:06.580Z,29.00
2018-03-06T17:00:34.070Z,30.80
2018-03-06T17:03:02.338Z,31.20
2018-03-06T17:05:30.594Z,30.10
2018-03-06T17:07:58.071Z,29.17
2018-03-06T17:10:26.318Z,29.43
2018-03-06T17:12:53.831Z,29.13
2018-03-06T17:15:21.346Z,30.57
2018-03-06T17:17:48.833Z,30.40
2018-03-06T17:20:16.323Z,28.83
2018-03-06T17:22:43.790Z,32.43
2018-03-06T17:25:11.284Z,31.57
2018-03-06T17:27:39.516Z,31.77
2018-03-06T17:30:07.018Z,28.83
2018-03-06T17:32:34.478Z,30.97
2018-03-06T17:35:02.727Z,31.30
2018-03-06T17:37:30.200Z,31.77
2018-03-06T17:39:57.709Z,34.47
2018-03-06T17:42:25.195Z,36.10
2018-03-06T17:44:52.675Z,36.20
2018-03-06T17:47:20.890Z,33.90
2018-03-06T17:49:48.421Z,33.50
2018-03-06T17:52:15.859Z,37.10
2018-03-06T17:54:43.320Z,35.53
2018-03-06T17:57:11.609Z,35.67
2018-03-06T17:59:39.136Z,37.93
2018-03-06T18:02:06.786Z,42.70
2018-03-06T18:04:34.237Z,39.30
2018-03-06T18:07:01.737Z,40.17
2018-03-06T18:09:29.971Z,39.97
2018-03-06T18:11:57.465Z,41.20
2018-03-06T18:14:25.712Z,41.50
2018-03-06T18:16:53.194Z,42.93
2018-03-06T18:19:21.415Z,44.97
2018-03-06T18:21:48.876Z,42.50
2018-03-06T18:24:16.372Z,44.77
2018-03-06T18:26:44.612Z,43.07
2018-03-06T18:29:12.095Z,44.67
2018-03-06T18:31:39.570Z,46.50
2018-03-06T18:34:07.846Z,47.77
2018-03-06T18:36:36.092Z,46.97
2018-03-06T18:39:03.620Z,47.90
2018-03-06T18:41:31.079Z,43.83
2018-03-06T18:43:58.580Z,45.50
2018-03-06T18:46:26.813Z,42.43
2018-03-06T18:48:55.124Z,42.00
2018-03-06T18:51:22.639Z,44.40
2018-03-06T18:53:50.100Z,44.10
2018-03-06T18:56:17.576Z,41.17
2018-03-06T18:58:45.056Z,43.77
2018-03-06T19:04:28.854Z,43.10
2018-03-06T19:07:14.085Z,42.10
2018-03-06T19:09:42.324Z,38.63
2018-03-06T19:12:09.811Z,39.10
2018-03-06T19:14:37.293Z,40.97
2018-03-06T19:17:05.526Z,40.27
2018-03-06T19:19:32.992Z,42.27
2018-03-06T19:22:00.503Z,42.00
2018-03-06T19:24:27.974Z,40.27
2018-03-06T19:26:55.478Z,42.13
2018-03-06T19:29:23.042Z,40.80
2018-03-06T19:31:50.504Z,40.73
2018-03-06T19:34:18.790Z,39.40
2018-03-06T19:36:46.992Z,38.77
2018-03-06T19:39:14.506Z,32.83
2018-03-06T19:41:41.989Z,38.87
2018-03-06T19:44:09.476Z,40.50
2018-03-06T19:46:37.024Z,38.47
2018-03-06T19:49:04.733Z,41.00
2018-03-06T19:51:32.263Z,40.07
2018-03-06T19:53:59.732Z,40.23
2018-03-06T19:56:27.516Z,41.50
2018-03-06T19:58:54.984Z,38.10
2018-03-06T20:01:23.366Z,38.83
2018-03-06T20:03:51.103Z,38.50
2018-03-06T20:06:19.491Z,38.37
2018-03-06T20:08:47.114Z,37.97
2018-03-06T20:11:14.556Z,37.20
2018-03-06T20:13:42.397Z,38.17
2018-03-06T20:16:10.037Z,38.97
2018-03-06T20:18:37.505Z,36.63
2018-03-06T20:21:05.091Z,39.37
2018-03-06T20:23:32.561Z,38.33
2018-03-06T20:26:00.046Z,37.67
2018-03-06T20:28:27.523Z,38.33
2018-03-06T20:31:01.410Z,38.20
2018-03-06T20:33:28.881Z,35.03
2018-03-06T20:35:57.125Z,35.90
2018-03-06T20:38:30.183Z,36.57
2018-03-06T20:40:57.717Z,37.30
2018-03-06T20:43:25.912Z,37.73
2018-03-06T20:45:59.020Z,37.27
2018-03-06T20:48:26.488Z,35.20
2018-03-06T20:50:53.988Z,31.40
2018-03-06T20:53:27.907Z,36.70
2018-03-06T20:55:55.422Z,36.90
2018-03-06T20:58:23.107Z,36.13
2018-03-06T21:00:51.337Z,34.80
2018-03-06T21:03:18.816Z,34.33
2018-03-06T21:05:46.294Z,34.50
2018-03-06T21:08:14.588Z,32.07
2018-03-06T21:10:42.064Z,35.03
2018-03-06T21:13:09.536Z,40.17
2018-03-06T21:15:37.010Z,35.87
2018-03-06T21:18:04.492Z,37.27
2018-03-06T21:20:32.710Z,38.03
2018-03-06T21:23:00.228Z,40.03
2018-03-06T21:25:28.479Z,38.50
2018-03-06T21:27:56.720Z,38.17
2018-03-06T21:30:24.209Z,37.77
2018-03-06T21:32:51.702Z,37.90
2018-03-06T21:35:20.008Z,37.90
2018-03-06T21:37:47.494Z,37.97
2018-03-06T21:40:14.967Z,37.80
2018-03-06T21:42:43.219Z,37.90
2018-03-06T21:45:10.748Z,37.97
2018-03-06T21:47:38.197Z,38.50
2018-03-06T21:50:05.696Z,36.30
2018-03-06T21:52:33.159Z,38.60
2018-03-06T21:55:00.693Z,41.93
2018-03-06T21:57:28.177Z,41.60
2018-03-06T21:59:55.625Z,37.53
2018-03-06T22:02:23.157Z,38.63
2018-03-06T22:04:50.604Z,40.20
2018-03-06T22:07:18.070Z,40.23
2018-03-06T22:09:45.563Z,42.00
2018-03-06T22:12:13.038Z,41.13
2018-03-06T22:14:41.285Z,40.17
2018-03-06T22:17:10.299Z,40.90
2018-03-06T22:19:38.552Z,43.27
2018-03-06T22:22:05.993Z,40.23
2018-03-06T22:24:33.480Z,40.10
2018-03-06T22:27:00.930Z,38.70
2018-03-06T22:29:29.192Z,42.53
2018-03-06T22:31:56.668Z,42.87
2018-03-06T22:34:24.890Z,41.67
2018-03-06T22:36:52.410Z,40.30
2018-03-06T22:39:20.631Z,41.50
2018-03-06T22:41:48.119Z,43.30
2018-03-06T22:44:15.583Z,42.00
2018-03-06T22:46:43.067Z,43.17
2018-03-06T22:49:10.513Z,40.90
2018-03-06T22:51:38.024Z,43.73
2018-03-06T22:54:05.475Z,40.90
2018-03-06T22:56:32.941Z,43.77
2018-03-06T22:59:00.395Z,42.80
2018-03-06T23:01:27.927Z,44.03
2018-03-06T23:03:55.386Z,44.90
2018-03-06T23:06:22.843Z,37.53
2018-03-06T23:08:50.347Z,40.60
2018-03-06T23:11:18.558Z,46.80
2018-03-06T23:13:46.080Z,42.33
2018-03-06T23:16:13.552Z,47.17
2018-03-06T23:18:41.787Z,47.37
2018-03-06T23:21:09.279Z,46.23
2018-03-06T23:23:37.507Z,43.10
2018-03-06T23:26:04.976Z,46.10
2018-03-06T23:28:32.428Z,43.97
2018-03-06T23:30:59.920Z,44.20
2018-03-06T23:33:28.137Z,45.63
2018-03-06T23:35:55.652Z,44.87
2018-03-06T23:38:23.880Z,44.23
2018-03-06T23:40:51.332Z,42.50
2018-03-06T23:43:18.808Z,32.60
2018-03-06T23:45:47.050Z,32.37
2018-03-06T23:48:14.535Z,29.03
2018-03-06T23:50:41.976Z,36.53
2018-03-06T23:53:09.467Z,31.00
2018-03-06T23:55:36.923Z,29.83
2018-03-06T23:58:04.399Z,32.60
